QTR65E ESGG-OTHH
Flight info
| Callsign | QTR65E |
|---|---|
| Flight time | 5h 45m |
| Altitude | 35000 |
| Route | TOPLA DCT KEMAX DCT AMROR N983 POLON N133 LENOV DCT KENIN DCT KARIL DCT EFJAS DCT IVGOT Q7 ARTAT UP975 EZS UT36 RENGI UT253 OTKEP UM688 RATVO M688 SOBIL/N0489F370 M688 SIDAD P975 LONOS L703 HAYYA |
| Aircraft | B77W/H-SDE1E2E3FGHIJ2J3J4J5M1RWXY/LB1D1 |
Departure
| Time | 2026-05-06 19:20 |
|---|---|
| Airport | Göteborg Landvetter Airport (ESGG) |
Arrival
| Time | 2026-05-07 01:05 |
|---|---|
| Airport | Hamad International Airport (OTHH) |
| Time | Latitude | Longitude | Altitude | Speed | Heading |
|---|---|---|---|---|---|
| 2026-05-06 18:28 | 57.66544 | 12.29073 | 518 ft | 0 kts | 115° |
| 2026-05-06 19:08 | 57.66545 | 12.29066 | 518 ft | 2 kts | 116° |
| 2026-05-06 19:08 | 57.66553 | 12.29043 | 518 ft | 2 kts | 132° |
| 2026-05-06 19:09 | 57.66564 | 12.29024 | 518 ft | 2 kts | 146° |
| 2026-05-06 19:09 | 57.66577 | 12.29011 | 517 ft | 2 kts | 158° |
| 2026-05-06 19:09 | 57.66591 | 12.29002 | 517 ft | 2 kts | 171° |
| 2026-05-06 19:09 | 57.66606 | 12.29000 | 517 ft | 2 kts | 184° |
| 2026-05-06 19:10 | 57.66621 | 12.29004 | 516 ft | 2 kts | 196° |
| 2026-05-06 19:10 | 57.66630 | 12.29011 | 516 ft | 0 kts | 205° |
| 2026-05-06 19:10 | 57.66632 | 12.29012 | 516 ft | 0 kts | 205° |
| 2026-05-06 19:14 | 57.66628 | 12.29008 | 516 ft | 2 kts | 207° |
| 2026-05-06 19:15 | 57.66621 | 12.28980 | 516 ft | 4 kts | 261° |
| 2026-05-06 19:15 | 57.66638 | 12.28866 | 513 ft | 13 kts | 293° |
| 2026-05-06 19:15 | 57.66696 | 12.28747 | 512 ft | 12 kts | 354° |
| 2026-05-06 19:15 | 57.66788 | 12.28789 | 512 ft | 16 kts | 23° |
| 2026-05-06 19:16 | 57.66912 | 12.28894 | 512 ft | 22 kts | 24° |
| 2026-05-06 19:16 | 57.67067 | 12.29032 | 514 ft | 25 kts | 28° |
| 2026-05-06 19:16 | 57.67214 | 12.29173 | 515 ft | 22 kts | 24° |
| 2026-05-06 19:16 | 57.67347 | 12.29293 | 515 ft | 19 kts | 25° |
| 2026-05-06 19:17 | 57.67431 | 12.29331 | 515 ft | 10 kts | 327° |
| 2026-05-06 19:17 | 57.67448 | 12.29293 | 515 ft | 0 kts | 291° |
| 2026-05-06 19:18 | 57.67449 | 12.29290 | 515 ft | 1 kts | 290° |
| 2026-05-06 19:18 | 57.67450 | 12.29286 | 515 ft | 0 kts | 288° |
| 2026-05-06 19:19 | 57.67452 | 12.29183 | 515 ft | 16 kts | 263° |
| 2026-05-06 19:19 | 57.67339 | 12.28952 | 515 ft | 35 kts | 206° |
| 2026-05-06 19:19 | 57.66933 | 12.28567 | 514 ft | 102 kts | 205° |
| 2026-05-06 19:19 | 57.66069 | 12.27788 | 513 ft | 170 kts | 206° |
| 2026-05-06 19:20 | 57.64887 | 12.26729 | 805 ft | 204 kts | 206° |
| 2026-05-06 19:20 | 57.63587 | 12.25640 | 1707 ft | 214 kts | 205° |
| 2026-05-06 19:20 | 57.62278 | 12.24509 | 2712 ft | 205 kts | 209° |
| 2026-05-06 19:20 | 57.60962 | 12.23286 | 3210 ft | 222 kts | 198° |
| 2026-05-06 19:21 | 57.59406 | 12.22876 | 3737 ft | 237 kts | 184° |
| 2026-05-06 19:21 | 57.57713 | 12.22747 | 4352 ft | 251 kts | 182° |
| 2026-05-06 19:21 | 57.55937 | 12.22650 | 5066 ft | 260 kts | 179° |
| 2026-05-06 19:21 | 57.54143 | 12.22968 | 5942 ft | 263 kts | 172° |
| 2026-05-06 19:22 | 57.52359 | 12.23464 | 6833 ft | 264 kts | 171° |
| 2026-05-06 19:22 | 57.50524 | 12.23978 | 7644 ft | 269 kts | 172° |
| 2026-05-06 19:22 | 57.48669 | 12.24484 | 8449 ft | 274 kts | 172° |
| 2026-05-06 19:22 | 57.46804 | 12.24990 | 9235 ft | 278 kts | 172° |
| 2026-05-06 19:23 | 57.44881 | 12.25509 | 10032 ft | 283 kts | 172° |
| 2026-05-06 19:23 | 57.42913 | 12.26039 | 10562 ft | 297 kts | 172° |
| 2026-05-06 19:23 | 57.40801 | 12.26607 | 10978 ft | 314 kts | 173° |
| 2026-05-06 19:23 | 57.38591 | 12.27201 | 11426 ft | 330 kts | 173° |
| 2026-05-06 19:24 | 57.36282 | 12.27822 | 11873 ft | 346 kts | 173° |
| 2026-05-06 19:24 | 57.33854 | 12.28474 | 12313 ft | 362 kts | 173° |
| 2026-05-06 19:24 | 57.31334 | 12.29150 | 12773 ft | 376 kts | 173° |
| 2026-05-06 19:24 | 57.28707 | 12.29853 | 13392 ft | 386 kts | 173° |
| 2026-05-06 19:25 | 57.26043 | 12.30567 | 14130 ft | 392 kts | 173° |
| 2026-05-06 19:25 | 57.23340 | 12.31289 | 14930 ft | 396 kts | 173° |
| 2026-05-06 19:25 | 57.20616 | 12.32016 | 15731 ft | 399 kts | 174° |
| 2026-05-06 19:25 | 57.17901 | 12.32739 | 16486 ft | 403 kts | 174° |
| 2026-05-06 19:26 | 57.15133 | 12.33658 | 17225 ft | 409 kts | 168° |
| 2026-05-06 19:26 | 57.12442 | 12.35418 | 17934 ft | 417 kts | 158° |
| 2026-05-06 19:26 | 57.09890 | 12.38016 | 18616 ft | 424 kts | 151° |
| 2026-05-06 19:26 | 57.07386 | 12.40868 | 19307 ft | 428 kts | 151° |
| 2026-05-06 19:27 | 57.04856 | 12.43759 | 20042 ft | 430 kts | 152° |
| 2026-05-06 19:27 | 57.02349 | 12.46613 | 20715 ft | 433 kts | 152° |
| 2026-05-06 19:27 | 56.99787 | 12.49521 | 21364 ft | 437 kts | 152° |
| 2026-05-06 19:27 | 56.97210 | 12.52438 | 21982 ft | 440 kts | 152° |
| 2026-05-06 19:28 | 56.94575 | 12.55413 | 22592 ft | 444 kts | 153° |
| 2026-05-06 19:28 | 56.91978 | 12.58339 | 23168 ft | 447 kts | 153° |
| 2026-05-06 19:28 | 56.89307 | 12.61342 | 23768 ft | 450 kts | 153° |
| 2026-05-06 19:28 | 56.86649 | 12.64327 | 24384 ft | 452 kts | 153° |
| 2026-05-06 19:29 | 56.83973 | 12.67324 | 24972 ft | 455 kts | 154° |
| 2026-05-06 19:29 | 56.81266 | 12.70350 | 25540 ft | 458 kts | 154° |
| 2026-05-06 19:29 | 56.78583 | 12.73345 | 26082 ft | 461 kts | 154° |
| 2026-05-06 19:29 | 56.75851 | 12.76388 | 26615 ft | 464 kts | 154° |
| 2026-05-06 19:30 | 56.73092 | 12.79458 | 27177 ft | 466 kts | 154° |
| 2026-05-06 19:30 | 56.70320 | 12.82536 | 27762 ft | 468 kts | 154° |
| 2026-05-06 19:30 | 56.67564 | 12.85591 | 28330 ft | 470 kts | 154° |
| 2026-05-06 19:30 | 56.64755 | 12.88700 | 28880 ft | 471 kts | 154° |
| 2026-05-06 19:31 | 56.61993 | 12.91751 | 28943 ft | 471 kts | 153° |
| 2026-05-06 19:31 | 56.53676 | 13.00908 | 28945 ft | 465 kts | 153° |
| 2026-05-06 19:32 | 56.48172 | 13.06940 | 28947 ft | 465 kts | 153° |
| 2026-05-06 19:32 | 56.42661 | 13.12958 | 28947 ft | 465 kts | 153° |
| 2026-05-06 19:33 | 56.37155 | 13.18951 | 28951 ft | 465 kts | 153° |
| 2026-05-06 19:33 | 56.31623 | 13.24951 | 28950 ft | 465 kts | 153° |
| 2026-05-06 19:34 | 56.26091 | 13.30930 | 28955 ft | 465 kts | 153° |
| 2026-05-06 19:34 | 56.20571 | 13.36876 | 28964 ft | 466 kts | 153° |
| 2026-05-06 19:35 | 56.15025 | 13.42831 | 28960 ft | 465 kts | 152° |
| 2026-05-06 19:35 | 56.09672 | 13.49415 | 28960 ft | 470 kts | 145° |
| 2026-05-06 19:36 | 56.04541 | 13.56521 | 28961 ft | 469 kts | 145° |
| 2026-05-06 19:36 | 55.99376 | 13.63639 | 28960 ft | 469 kts | 145° |
| 2026-05-06 19:37 | 55.94223 | 13.70707 | 28955 ft | 468 kts | 146° |
| 2026-05-06 19:37 | 55.89929 | 13.76573 | 28962 ft | 469 kts | 146° |
| 2026-05-06 19:38 | 55.83886 | 13.84797 | 28976 ft | 478 kts | 146° |
| 2026-05-06 19:38 | 55.78561 | 13.92012 | 28970 ft | 483 kts | 146° |
| 2026-05-06 19:39 | 55.75934 | 13.95569 | 28973 ft | 471 kts | 146° |
| 2026-05-06 19:39 | 55.73335 | 13.99078 | 28965 ft | 466 kts | 146° |
| 2026-05-06 19:39 | 55.68118 | 14.06095 | 28967 ft | 485 kts | 146° |
| 2026-05-06 19:40 | 55.65418 | 14.09717 | 29199 ft | 493 kts | 145° |
| 2026-05-06 19:40 | 55.62711 | 14.13345 | 30009 ft | 489 kts | 145° |
| 2026-05-06 19:40 | 55.60033 | 14.16931 | 31123 ft | 479 kts | 145° |
| 2026-05-06 19:40 | 55.57397 | 14.20455 | 32022 ft | 472 kts | 146° |
| 2026-05-06 19:41 | 55.54808 | 14.23906 | 32593 ft | 471 kts | 146° |
| 2026-05-06 19:41 | 55.52206 | 14.27368 | 32928 ft | 474 kts | 146° |
| 2026-05-06 19:41 | 55.46938 | 14.34360 | 32953 ft | 475 kts | 146° |
| 2026-05-06 19:42 | 55.41687 | 14.41306 | 32956 ft | 474 kts | 146° |
| 2026-05-06 19:42 | 55.36403 | 14.48273 | 32952 ft | 475 kts | 146° |
| 2026-05-06 19:43 | 55.31169 | 14.55152 | 32951 ft | 474 kts | 146° |
| 2026-05-06 19:43 | 55.26435 | 14.61352 | 32940 ft | 475 kts | 146° |
| 2026-05-06 19:44 | 55.22152 | 14.66945 | 32933 ft | 474 kts | 146° |
| 2026-05-06 19:44 | 55.16880 | 14.73809 | 32936 ft | 475 kts | 147° |
| 2026-05-06 19:45 | 55.11604 | 14.80654 | 32939 ft | 474 kts | 146° |
| 2026-05-06 19:45 | 55.06306 | 14.87506 | 32937 ft | 475 kts | 147° |
| 2026-05-06 19:46 | 55.01042 | 14.94290 | 32928 ft | 475 kts | 147° |
| 2026-05-06 19:46 | 54.95717 | 15.01129 | 32920 ft | 475 kts | 147° |
| 2026-05-06 19:47 | 54.90425 | 15.07911 | 32911 ft | 476 kts | 146° |
| 2026-05-06 19:47 | 54.85677 | 15.15927 | 32926 ft | 482 kts | 135° |
| 2026-05-06 19:48 | 54.81182 | 15.24555 | 32904 ft | 482 kts | 135° |
| 2026-05-06 19:48 | 54.76708 | 15.33087 | 32907 ft | 482 kts | 135° |
| 2026-05-06 19:49 | 54.72191 | 15.41653 | 32909 ft | 482 kts | 136° |
| 2026-05-06 19:49 | 54.67693 | 15.50142 | 32906 ft | 483 kts | 136° |
| 2026-05-06 19:50 | 54.63173 | 15.58638 | 32906 ft | 483 kts | 136° |
| 2026-05-06 19:50 | 54.58448 | 15.66845 | 32897 ft | 480 kts | 142° |
| 2026-05-06 19:51 | 54.53536 | 15.74523 | 32892 ft | 480 kts | 142° |
| 2026-05-06 19:51 | 54.48612 | 15.82187 | 32891 ft | 480 kts | 142° |
| 2026-05-06 19:52 | 54.43639 | 15.89906 | 32888 ft | 481 kts | 142° |
| 2026-05-06 19:52 | 54.38707 | 15.97536 | 32882 ft | 481 kts | 142° |
| 2026-05-06 19:53 | 54.33764 | 16.05159 | 32877 ft | 481 kts | 142° |
| 2026-05-06 19:53 | 54.28804 | 16.12783 | 32877 ft | 481 kts | 142° |
| 2026-05-06 19:54 | 54.23840 | 16.20389 | 32875 ft | 482 kts | 143° |
| 2026-05-06 19:54 | 54.18847 | 16.28013 | 32867 ft | 481 kts | 143° |
| 2026-05-06 19:55 | 54.13900 | 16.35540 | 32860 ft | 482 kts | 143° |
| 2026-05-06 19:55 | 54.08908 | 16.43111 | 32851 ft | 482 kts | 143° |
| 2026-05-06 19:56 | 54.03912 | 16.50664 | 32837 ft | 481 kts | 143° |
| 2026-05-06 19:56 | 53.98936 | 16.58160 | 32831 ft | 482 kts | 143° |
| 2026-05-06 19:57 | 53.93934 | 16.65670 | 32833 ft | 482 kts | 144° |
| 2026-05-06 19:57 | 53.88934 | 16.73155 | 32824 ft | 480 kts | 144° |
| 2026-05-06 19:58 | 53.83915 | 16.80640 | 32819 ft | 481 kts | 145° |
| 2026-05-06 19:58 | 53.78899 | 16.88096 | 32830 ft | 481 kts | 145° |
| 2026-05-06 19:59 | 53.73911 | 16.95488 | 32832 ft | 480 kts | 145° |
| 2026-05-06 19:59 | 53.68890 | 17.02905 | 32819 ft | 482 kts | 145° |
| 2026-05-06 20:00 | 53.63863 | 17.10313 | 32814 ft | 482 kts | 145° |
| 2026-05-06 20:00 | 53.58838 | 17.17697 | 32813 ft | 481 kts | 145° |
| 2026-05-06 20:01 | 53.53824 | 17.25039 | 32810 ft | 481 kts | 145° |
| 2026-05-06 20:01 | 53.48754 | 17.32434 | 32834 ft | 487 kts | 145° |
| 2026-05-06 20:02 | 53.46219 | 17.36124 | 33212 ft | 488 kts | 145° |
| 2026-05-06 20:02 | 53.43668 | 17.39835 | 33876 ft | 482 kts | 145° |
| 2026-05-06 20:02 | 53.41180 | 17.43449 | 34490 ft | 478 kts | 144° |
| 2026-05-06 20:02 | 53.38667 | 17.47089 | 34749 ft | 481 kts | 144° |
| 2026-05-06 20:03 | 53.33600 | 17.54409 | 34789 ft | 481 kts | 144° |
| 2026-05-06 20:03 | 53.28564 | 17.61664 | 34795 ft | 482 kts | 144° |
| 2026-05-06 20:04 | 53.23479 | 17.68965 | 34779 ft | 480 kts | 145° |
| 2026-05-06 20:04 | 53.18425 | 17.76199 | 34763 ft | 481 kts | 146° |
| 2026-05-06 20:05 | 53.13379 | 17.83397 | 34771 ft | 480 kts | 146° |
| 2026-05-06 20:05 | 53.08293 | 17.90630 | 34760 ft | 481 kts | 146° |
| 2026-05-06 20:06 | 53.03228 | 17.97809 | 34757 ft | 480 kts | 146° |
| 2026-05-06 20:06 | 52.98178 | 18.04943 | 34758 ft | 482 kts | 145° |
| 2026-05-06 20:07 | 52.93085 | 18.12118 | 34748 ft | 480 kts | 145° |
| 2026-05-06 20:07 | 52.88015 | 18.19234 | 34755 ft | 482 kts | 146° |
| 2026-05-06 20:08 | 52.82884 | 18.26416 | 34755 ft | 481 kts | 146° |
| 2026-05-06 20:08 | 52.77807 | 18.33498 | 34755 ft | 481 kts | 146° |
| 2026-05-06 20:09 | 52.72714 | 18.40580 | 34771 ft | 481 kts | 146° |
| 2026-05-06 20:09 | 52.67609 | 18.47658 | 34758 ft | 479 kts | 145° |
| 2026-05-06 20:10 | 52.62499 | 18.54719 | 34759 ft | 481 kts | 145° |
| 2026-05-06 20:10 | 52.57429 | 18.61702 | 34755 ft | 478 kts | 146° |
| 2026-05-06 20:11 | 52.52300 | 18.68739 | 34750 ft | 479 kts | 146° |
| 2026-05-06 20:11 | 52.47239 | 18.75666 | 34758 ft | 477 kts | 146° |
| 2026-05-06 20:12 | 52.42142 | 18.82618 | 34759 ft | 475 kts | 146° |
| 2026-05-06 20:12 | 52.37114 | 18.89456 | 34758 ft | 476 kts | 147° |
| 2026-05-06 20:13 | 52.32010 | 18.96375 | 34760 ft | 473 kts | 147° |
| 2026-05-06 20:13 | 52.26967 | 19.03182 | 34759 ft | 475 kts | 147° |
| 2026-05-06 20:14 | 52.21879 | 19.10029 | 34753 ft | 474 kts | 147° |
| 2026-05-06 20:14 | 52.16824 | 19.16811 | 34758 ft | 476 kts | 147° |
| 2026-05-06 20:15 | 52.11720 | 19.23640 | 34755 ft | 474 kts | 147° |
| 2026-05-06 20:15 | 52.06613 | 19.30449 | 34750 ft | 476 kts | 147° |
| 2026-05-06 20:16 | 52.01517 | 19.37223 | 34760 ft | 479 kts | 147° |
| 2026-05-06 20:16 | 51.96359 | 19.44062 | 34750 ft | 478 kts | 146° |
| 2026-05-06 20:17 | 51.91206 | 19.50868 | 34761 ft | 484 kts | 146° |
| 2026-05-06 20:17 | 51.86011 | 19.57715 | 34776 ft | 483 kts | 146° |
| 2026-05-06 20:18 | 51.80670 | 19.64238 | 34770 ft | 479 kts | 155° |
| 2026-05-06 20:18 | 51.74615 | 19.68412 | 34773 ft | 470 kts | 167° |
| 2026-05-06 20:19 | 51.68420 | 19.71722 | 34763 ft | 468 kts | 168° |
| 2026-05-06 20:19 | 51.62190 | 19.75004 | 34764 ft | 471 kts | 167° |
| 2026-05-06 20:20 | 51.55992 | 19.78258 | 34761 ft | 472 kts | 168° |
| 2026-05-06 20:20 | 51.49763 | 19.81518 | 34760 ft | 472 kts | 168° |
| 2026-05-06 20:21 | 51.43509 | 19.84798 | 34757 ft | 474 kts | 167° |
| 2026-05-06 20:21 | 51.37268 | 19.88046 | 34759 ft | 474 kts | 168° |
| 2026-05-06 20:22 | 51.31007 | 19.91297 | 34761 ft | 474 kts | 168° |
| 2026-05-06 20:22 | 51.24746 | 19.94542 | 34766 ft | 476 kts | 168° |
| 2026-05-06 20:23 | 51.18459 | 19.97788 | 34764 ft | 475 kts | 168° |
| 2026-05-06 20:23 | 51.12149 | 20.01027 | 34764 ft | 477 kts | 168° |
| 2026-05-06 20:24 | 51.05853 | 20.04252 | 34767 ft | 478 kts | 168° |
| 2026-05-06 20:24 | 50.99554 | 20.07469 | 34772 ft | 477 kts | 168° |
| 2026-05-06 20:25 | 50.93245 | 20.10681 | 34766 ft | 477 kts | 168° |
| 2026-05-06 20:25 | 50.86948 | 20.13880 | 34774 ft | 479 kts | 168° |
| 2026-05-06 20:26 | 50.80629 | 20.17085 | 34784 ft | 477 kts | 168° |
| 2026-05-06 20:26 | 50.74281 | 20.20294 | 34779 ft | 478 kts | 168° |
| 2026-05-06 20:27 | 50.67979 | 20.23472 | 34783 ft | 478 kts | 168° |
| 2026-05-06 20:27 | 50.61691 | 20.26779 | 34797 ft | 480 kts | 165° |
| 2026-05-06 20:28 | 50.55461 | 20.30546 | 34793 ft | 482 kts | 164° |
| 2026-05-06 20:28 | 50.49191 | 20.34305 | 34793 ft | 482 kts | 165° |
| 2026-05-06 20:29 | 50.42967 | 20.38005 | 34797 ft | 483 kts | 165° |
| 2026-05-06 20:29 | 50.36678 | 20.41724 | 34945 ft | 479 kts | 165° |
| 2026-05-06 20:30 | 50.33598 | 20.43543 | 35564 ft | 471 kts | 165° |
| 2026-05-06 20:30 | 50.27433 | 20.47163 | 35805 ft | 479 kts | 165° |
| 2026-05-06 20:30 | 50.24337 | 20.48975 | 35632 ft | 484 kts | 165° |
| 2026-05-06 20:31 | 50.21142 | 20.50845 | 35292 ft | 486 kts | 164° |
| 2026-05-06 20:31 | 50.17994 | 20.52685 | 34944 ft | 486 kts | 165° |
| 2026-05-06 20:31 | 50.14883 | 20.54503 | 34820 ft | 480 kts | 165° |
| 2026-05-06 20:32 | 50.08606 | 20.58156 | 34811 ft | 487 kts | 165° |
| 2026-05-06 20:32 | 50.02228 | 20.61859 | 34819 ft | 486 kts | 165° |
| 2026-05-06 20:33 | 49.95943 | 20.65499 | 34816 ft | 486 kts | 165° |
| 2026-05-06 20:33 | 49.89620 | 20.69149 | 34829 ft | 487 kts | 165° |
| 2026-05-06 20:34 | 49.83244 | 20.72819 | 34837 ft | 488 kts | 165° |
| 2026-05-06 20:34 | 49.76894 | 20.76465 | 34840 ft | 487 kts | 165° |
| 2026-05-06 20:35 | 49.70539 | 20.80102 | 34851 ft | 491 kts | 165° |
| 2026-05-06 20:35 | 49.64114 | 20.83770 | 34867 ft | 489 kts | 165° |
| 2026-05-06 20:36 | 49.57745 | 20.87396 | 34868 ft | 489 kts | 165° |
| 2026-05-06 20:36 | 49.51392 | 20.91002 | 34879 ft | 491 kts | 165° |
| 2026-05-06 20:37 | 49.45014 | 20.94612 | 34885 ft | 491 kts | 165° |
| 2026-05-06 20:37 | 49.38597 | 20.98234 | 34893 ft | 492 kts | 165° |
| 2026-05-06 20:38 | 49.32280 | 21.02346 | 34907 ft | 499 kts | 154° |
| 2026-05-06 20:38 | 49.26340 | 21.07990 | 34908 ft | 502 kts | 152° |
| 2026-05-06 20:39 | 49.20471 | 21.13637 | 34901 ft | 502 kts | 152° |
| 2026-05-06 20:39 | 49.14559 | 21.19298 | 34886 ft | 502 kts | 152° |
| 2026-05-06 20:40 | 49.08636 | 21.24947 | 34885 ft | 502 kts | 152° |
| 2026-05-06 20:40 | 49.02704 | 21.30585 | 34893 ft | 504 kts | 152° |
| 2026-05-06 20:41 | 48.96780 | 21.36200 | 34894 ft | 504 kts | 152° |
| 2026-05-06 20:41 | 48.90849 | 21.41803 | 34893 ft | 504 kts | 152° |
| 2026-05-06 20:42 | 48.84904 | 21.47403 | 34902 ft | 505 kts | 152° |
| 2026-05-06 20:42 | 48.78943 | 21.53002 | 34906 ft | 504 kts | 152° |
| 2026-05-06 20:43 | 48.72977 | 21.58589 | 34903 ft | 505 kts | 152° |
| 2026-05-06 20:43 | 48.67020 | 21.64153 | 34898 ft | 504 kts | 152° |
| 2026-05-06 20:44 | 48.61074 | 21.69692 | 34890 ft | 504 kts | 152° |
| 2026-05-06 20:44 | 48.55077 | 21.75261 | 34888 ft | 506 kts | 152° |
| 2026-05-06 20:45 | 48.49115 | 21.80782 | 34889 ft | 505 kts | 152° |
| 2026-05-06 20:45 | 48.43128 | 21.86311 | 34889 ft | 505 kts | 152° |
| 2026-05-06 20:46 | 48.37174 | 21.91794 | 34895 ft | 506 kts | 152° |
| 2026-05-06 20:46 | 48.31184 | 21.97295 | 34891 ft | 505 kts | 152° |
| 2026-05-06 20:47 | 48.25169 | 22.02802 | 34895 ft | 505 kts | 152° |
| 2026-05-06 20:47 | 48.19167 | 22.08282 | 34896 ft | 506 kts | 152° |
| 2026-05-06 20:48 | 48.13163 | 22.13748 | 34895 ft | 507 kts | 152° |
| 2026-05-06 20:48 | 48.07162 | 22.19197 | 34901 ft | 506 kts | 152° |
| 2026-05-06 20:49 | 48.01171 | 22.24622 | 34900 ft | 505 kts | 152° |
| 2026-05-06 20:49 | 47.95149 | 22.30060 | 34907 ft | 507 kts | 152° |
| 2026-05-06 20:50 | 47.89162 | 22.35451 | 34908 ft | 507 kts | 152° |
| 2026-05-06 20:50 | 47.83108 | 22.40888 | 34904 ft | 506 kts | 152° |
| 2026-05-06 20:51 | 47.77449 | 22.47077 | 34912 ft | 513 kts | 138° |
| 2026-05-06 20:51 | 47.72400 | 22.54497 | 34919 ft | 513 kts | 136° |
| 2026-05-06 20:52 | 47.67348 | 22.61960 | 34916 ft | 512 kts | 136° |
| 2026-05-06 20:52 | 47.62323 | 22.69350 | 34913 ft | 513 kts | 137° |
| 2026-05-06 20:53 | 47.57264 | 22.76764 | 34922 ft | 514 kts | 137° |
| 2026-05-06 20:53 | 47.52198 | 22.84164 | 34923 ft | 514 kts | 137° |
| 2026-05-06 20:54 | 47.47094 | 22.91596 | 34928 ft | 513 kts | 137° |
| 2026-05-06 20:54 | 47.42010 | 22.98976 | 34939 ft | 514 kts | 137° |
| 2026-05-06 20:55 | 47.36941 | 23.06314 | 34950 ft | 516 kts | 137° |
| 2026-05-06 20:55 | 47.31815 | 23.13712 | 34957 ft | 514 kts | 137° |
| 2026-05-06 20:56 | 47.26719 | 23.21047 | 34955 ft | 516 kts | 137° |
| 2026-05-06 20:56 | 47.21576 | 23.28427 | 34963 ft | 517 kts | 137° |
| 2026-05-06 20:57 | 47.16468 | 23.35737 | 34970 ft | 516 kts | 136° |
| 2026-05-06 20:57 | 47.11337 | 23.43059 | 34979 ft | 517 kts | 136° |
| 2026-05-06 20:58 | 47.06173 | 23.50406 | 34984 ft | 517 kts | 136° |
| 2026-05-06 20:58 | 47.01012 | 23.57729 | 34986 ft | 519 kts | 136° |
| 2026-05-06 20:59 | 46.95866 | 23.65010 | 34989 ft | 517 kts | 137° |
| 2026-05-06 20:59 | 46.90689 | 23.72314 | 34975 ft | 518 kts | 137° |
| 2026-05-06 21:00 | 46.85496 | 23.79619 | 34971 ft | 519 kts | 137° |
| 2026-05-06 21:00 | 46.80344 | 23.86848 | 34972 ft | 519 kts | 136° |
| 2026-05-06 21:01 | 46.75114 | 23.94163 | 34974 ft | 519 kts | 136° |
| 2026-05-06 21:01 | 46.69943 | 24.01377 | 34977 ft | 519 kts | 136° |
| 2026-05-06 21:02 | 46.64727 | 24.08634 | 34979 ft | 519 kts | 136° |
| 2026-05-06 21:02 | 46.59518 | 24.15860 | 34983 ft | 519 kts | 136° |
| 2026-05-06 21:03 | 46.54328 | 24.23039 | 34985 ft | 518 kts | 136° |
| 2026-05-06 21:03 | 46.49102 | 24.30249 | 34982 ft | 520 kts | 136° |
| 2026-05-06 21:04 | 46.43878 | 24.37435 | 34984 ft | 519 kts | 136° |
| 2026-05-06 21:04 | 46.38634 | 24.44628 | 34989 ft | 520 kts | 136° |
| 2026-05-06 21:05 | 46.33405 | 24.51782 | 34995 ft | 519 kts | 136° |
| 2026-05-06 21:05 | 46.28149 | 24.58953 | 34994 ft | 520 kts | 136° |
| 2026-05-06 21:06 | 46.22876 | 24.66126 | 34996 ft | 519 kts | 137° |
| 2026-05-06 21:06 | 46.17632 | 24.73243 | 34992 ft | 520 kts | 136° |
| 2026-05-06 21:07 | 46.12373 | 24.80358 | 34994 ft | 520 kts | 136° |
| 2026-05-06 21:07 | 46.07099 | 24.87474 | 34995 ft | 521 kts | 136° |
| 2026-05-06 21:08 | 46.01841 | 24.94550 | 35001 ft | 521 kts | 136° |
| 2026-05-06 21:08 | 45.96558 | 25.01639 | 35007 ft | 521 kts | 136° |
| 2026-05-06 21:09 | 45.91252 | 25.08740 | 35010 ft | 522 kts | 136° |
| 2026-05-06 21:09 | 45.85961 | 25.15800 | 35003 ft | 520 kts | 136° |
| 2026-05-06 21:10 | 45.80680 | 25.22830 | 35012 ft | 521 kts | 136° |
| 2026-05-06 21:10 | 45.75377 | 25.29868 | 35019 ft | 520 kts | 136° |
| 2026-05-06 21:11 | 45.70058 | 25.36910 | 35033 ft | 520 kts | 136° |
| 2026-05-06 21:11 | 45.64765 | 25.43898 | 35038 ft | 519 kts | 136° |
| 2026-05-06 21:12 | 45.59504 | 25.50824 | 35046 ft | 519 kts | 136° |
| 2026-05-06 21:12 | 45.54179 | 25.57816 | 35057 ft | 520 kts | 136° |
| 2026-05-06 21:13 | 45.48883 | 25.64752 | 35068 ft | 518 kts | 136° |
| 2026-05-06 21:13 | 45.43584 | 25.71673 | 35064 ft | 520 kts | 137° |
| 2026-05-06 21:14 | 45.38260 | 25.78608 | 35073 ft | 519 kts | 137° |
| 2026-05-06 21:14 | 45.32960 | 25.85493 | 35069 ft | 520 kts | 137° |
| 2026-05-06 21:15 | 45.27638 | 25.92390 | 35065 ft | 519 kts | 137° |
| 2026-05-06 21:15 | 45.22297 | 25.99292 | 35055 ft | 520 kts | 137° |
| 2026-05-06 21:16 | 45.16993 | 26.06128 | 35050 ft | 519 kts | 137° |
| 2026-05-06 21:16 | 45.11648 | 26.12998 | 35044 ft | 520 kts | 137° |
| 2026-05-06 21:17 | 45.06303 | 26.19850 | 35043 ft | 521 kts | 137° |
| 2026-05-06 21:17 | 45.00937 | 26.26712 | 35035 ft | 520 kts | 137° |
| 2026-05-06 21:18 | 44.95599 | 26.33518 | 35039 ft | 521 kts | 136° |
| 2026-05-06 21:18 | 44.90225 | 26.40355 | 35042 ft | 520 kts | 136° |
| 2026-05-06 21:19 | 44.84877 | 26.47139 | 35031 ft | 521 kts | 136° |
| 2026-05-06 21:19 | 44.79495 | 26.53949 | 35030 ft | 520 kts | 136° |
| 2026-05-06 21:20 | 44.74101 | 26.60757 | 35033 ft | 521 kts | 136° |
| 2026-05-06 21:20 | 44.68733 | 26.67513 | 35030 ft | 521 kts | 137° |
| 2026-05-06 21:21 | 44.63353 | 26.74269 | 35027 ft | 521 kts | 137° |
| 2026-05-06 21:21 | 44.57932 | 26.81057 | 35035 ft | 522 kts | 137° |
| 2026-05-06 21:22 | 44.52538 | 26.87793 | 35037 ft | 522 kts | 137° |
| 2026-05-06 21:22 | 44.47120 | 26.94543 | 35043 ft | 522 kts | 137° |
| 2026-05-06 21:23 | 44.41722 | 27.01250 | 35043 ft | 523 kts | 137° |
| 2026-05-06 21:23 | 44.36309 | 27.07958 | 35051 ft | 520 kts | 136° |
| 2026-05-06 21:24 | 44.30863 | 27.14690 | 35047 ft | 522 kts | 136° |
| 2026-05-06 21:24 | 44.25470 | 27.21339 | 35056 ft | 520 kts | 136° |
| 2026-05-06 21:25 | 44.20042 | 27.28015 | 35058 ft | 521 kts | 136° |
| 2026-05-06 21:25 | 44.14638 | 27.34643 | 35059 ft | 522 kts | 136° |
| 2026-05-06 21:26 | 44.09215 | 27.41277 | 35063 ft | 519 kts | 136° |
| 2026-05-06 21:26 | 44.03768 | 27.47927 | 35072 ft | 520 kts | 136° |
| 2026-05-06 21:27 | 43.98265 | 27.54397 | 35062 ft | 521 kts | 138° |
| 2026-05-06 21:27 | 43.92742 | 27.60759 | 35069 ft | 519 kts | 138° |
| 2026-05-06 21:28 | 43.87177 | 27.67152 | 35053 ft | 520 kts | 139° |
| 2026-05-06 21:28 | 43.81641 | 27.73495 | 35061 ft | 519 kts | 139° |
| 2026-05-06 21:29 | 43.76077 | 27.79855 | 35066 ft | 519 kts | 139° |
| 2026-05-06 21:29 | 43.70522 | 27.86189 | 35068 ft | 519 kts | 139° |
| 2026-05-06 21:30 | 43.64984 | 27.92487 | 35070 ft | 518 kts | 139° |
| 2026-05-06 21:30 | 43.59433 | 27.98785 | 35068 ft | 518 kts | 139° |
| 2026-05-06 21:31 | 43.53864 | 28.05087 | 35077 ft | 519 kts | 139° |
| 2026-05-06 21:31 | 43.48299 | 28.11370 | 35076 ft | 518 kts | 138° |
| 2026-05-06 21:32 | 43.42733 | 28.17639 | 35083 ft | 518 kts | 138° |
| 2026-05-06 21:32 | 43.34403 | 28.26991 | 35088 ft | 517 kts | 138° |
| 2026-05-06 21:33 | 43.28850 | 28.33207 | 35093 ft | 517 kts | 138° |
| 2026-05-06 21:33 | 43.23312 | 28.39390 | 35096 ft | 517 kts | 139° |
| 2026-05-06 21:34 | 43.17722 | 28.45617 | 35098 ft | 515 kts | 138° |
| 2026-05-06 21:34 | 43.12142 | 28.51817 | 35098 ft | 516 kts | 139° |
| 2026-05-06 21:35 | 43.07092 | 28.58664 | 35100 ft | 513 kts | 129° |
| 2026-05-06 21:35 | 43.02313 | 28.65817 | 35101 ft | 512 kts | 130° |
| 2026-05-06 21:36 | 42.97547 | 28.72927 | 35101 ft | 511 kts | 130° |
| 2026-05-06 21:36 | 42.92730 | 28.80086 | 35101 ft | 511 kts | 130° |
| 2026-05-06 21:37 | 42.87906 | 28.87233 | 35092 ft | 511 kts | 130° |
| 2026-05-06 21:37 | 42.83107 | 28.94321 | 35092 ft | 510 kts | 130° |
| 2026-05-06 21:38 | 42.78316 | 29.01380 | 35092 ft | 510 kts | 130° |
| 2026-05-06 21:38 | 42.73503 | 29.08454 | 35092 ft | 510 kts | 130° |
| 2026-05-06 21:39 | 42.68688 | 29.15513 | 35094 ft | 511 kts | 130° |
| 2026-05-06 21:39 | 42.63865 | 29.22565 | 35094 ft | 511 kts | 130° |
| 2026-05-06 21:40 | 42.59047 | 29.29594 | 35093 ft | 511 kts | 130° |
| 2026-05-06 21:40 | 42.54199 | 29.36648 | 35094 ft | 512 kts | 130° |
| 2026-05-06 21:41 | 42.49365 | 29.43665 | 35095 ft | 512 kts | 130° |
| 2026-05-06 21:41 | 42.44511 | 29.50694 | 35097 ft | 513 kts | 130° |
| 2026-05-06 21:42 | 42.39656 | 29.57713 | 35093 ft | 511 kts | 129° |
| 2026-05-06 21:42 | 42.35738 | 29.65557 | 35095 ft | 504 kts | 112° |
| 2026-05-06 21:43 | 42.33307 | 29.74405 | 35098 ft | 501 kts | 105° |
| 2026-05-06 21:43 | 42.31075 | 29.83280 | 35096 ft | 501 kts | 105° |
| 2026-05-06 21:44 | 42.28825 | 29.92153 | 35098 ft | 500 kts | 105° |
| 2026-05-06 21:44 | 42.26570 | 30.00994 | 35096 ft | 501 kts | 105° |
| 2026-05-06 21:45 | 42.24304 | 30.09829 | 35099 ft | 501 kts | 105° |
| 2026-05-06 21:45 | 42.22029 | 30.18663 | 35097 ft | 500 kts | 105° |
| 2026-05-06 21:46 | 42.19750 | 30.27476 | 35101 ft | 500 kts | 105° |
| 2026-05-06 21:46 | 42.18335 | 30.32928 | 35101 ft | 499 kts | 105° |
| 2026-05-06 21:47 | 42.16035 | 30.41765 | 35101 ft | 501 kts | 106° |
| 2026-05-06 21:47 | 42.13742 | 30.50540 | 35101 ft | 500 kts | 106° |
| 2026-05-06 21:48 | 42.11434 | 30.59343 | 35102 ft | 500 kts | 106° |
| 2026-05-06 21:48 | 42.09106 | 30.68190 | 35101 ft | 500 kts | 107° |
| 2026-05-06 21:49 | 42.06797 | 30.76933 | 35101 ft | 500 kts | 107° |
| 2026-05-06 21:49 | 42.04460 | 30.85748 | 35099 ft | 500 kts | 107° |
| 2026-05-06 21:50 | 42.02124 | 30.94530 | 35100 ft | 501 kts | 107° |
| 2026-05-06 21:50 | 41.99785 | 31.03288 | 35101 ft | 500 kts | 107° |
| 2026-05-06 21:51 | 41.97445 | 31.12043 | 35102 ft | 501 kts | 107° |
| 2026-05-06 21:51 | 41.95091 | 31.20822 | 35102 ft | 500 kts | 107° |
| 2026-05-06 21:52 | 41.92731 | 31.29590 | 35096 ft | 501 kts | 107° |
| 2026-05-06 21:52 | 41.90364 | 31.38351 | 35107 ft | 502 kts | 106° |
| 2026-05-06 21:53 | 41.87991 | 31.47105 | 35091 ft | 501 kts | 106° |
| 2026-05-06 21:53 | 41.85608 | 31.55866 | 35091 ft | 502 kts | 106° |
| 2026-05-06 21:54 | 41.83226 | 31.64593 | 35095 ft | 502 kts | 106° |
| 2026-05-06 21:54 | 41.80807 | 31.73388 | 35097 ft | 502 kts | 107° |
| 2026-05-06 21:55 | 41.78405 | 31.82092 | 35092 ft | 503 kts | 107° |
| 2026-05-06 21:55 | 41.75972 | 31.90889 | 35100 ft | 503 kts | 107° |
| 2026-05-06 21:56 | 41.73551 | 31.99610 | 35099 ft | 502 kts | 107° |
| 2026-05-06 21:56 | 41.71123 | 32.08329 | 35097 ft | 502 kts | 107° |
| 2026-05-06 21:57 | 41.68695 | 32.17016 | 35097 ft | 502 kts | 107° |
| 2026-05-06 21:57 | 41.66260 | 32.25724 | 35093 ft | 502 kts | 107° |
| 2026-05-06 21:58 | 41.63811 | 32.34484 | 35099 ft | 502 kts | 107° |
| 2026-05-06 21:58 | 41.61364 | 32.43154 | 35095 ft | 502 kts | 107° |
| 2026-05-06 21:59 | 41.58892 | 32.51875 | 35092 ft | 502 kts | 107° |
| 2026-05-06 21:59 | 41.56428 | 32.60556 | 35094 ft | 502 kts | 107° |
| 2026-05-06 22:00 | 41.53951 | 32.69252 | 35088 ft | 503 kts | 107° |
| 2026-05-06 22:00 | 41.51474 | 32.77919 | 35093 ft | 503 kts | 108° |
| 2026-05-06 22:01 | 41.48971 | 32.86647 | 35095 ft | 504 kts | 108° |
| 2026-05-06 22:01 | 41.46476 | 32.95318 | 35088 ft | 504 kts | 107° |
| 2026-05-06 22:02 | 41.43505 | 33.03718 | 35093 ft | 506 kts | 116° |
| 2026-05-06 22:02 | 41.40095 | 33.11937 | 35092 ft | 508 kts | 116° |
| 2026-05-06 22:03 | 41.36688 | 33.20117 | 35100 ft | 507 kts | 116° |
| 2026-05-06 22:03 | 41.33308 | 33.28316 | 35102 ft | 507 kts | 115° |
| 2026-05-06 22:04 | 41.29995 | 33.36562 | 35105 ft | 507 kts | 115° |
| 2026-05-06 22:04 | 41.26706 | 33.44833 | 35104 ft | 507 kts | 114° |
| 2026-05-06 22:05 | 41.23436 | 33.53126 | 35106 ft | 507 kts | 115° |
| 2026-05-06 22:05 | 41.20191 | 33.61324 | 35100 ft | 506 kts | 115° |
| 2026-05-06 22:06 | 41.16900 | 33.69609 | 35105 ft | 507 kts | 115° |
| 2026-05-06 22:06 | 41.13621 | 33.77833 | 35114 ft | 506 kts | 116° |
| 2026-05-06 22:07 | 41.10316 | 33.86101 | 35106 ft | 507 kts | 115° |
| 2026-05-06 22:07 | 41.07037 | 33.94281 | 35116 ft | 507 kts | 116° |
| 2026-05-06 22:08 | 41.03737 | 34.02488 | 35105 ft | 507 kts | 116° |
| 2026-05-06 22:08 | 41.00420 | 34.10715 | 35283 ft | 507 kts | 116° |
| 2026-05-06 22:09 | 40.98772 | 34.14793 | 35032 ft | 508 kts | 116° |
| 2026-05-06 22:09 | 40.97102 | 34.18920 | 35245 ft | 507 kts | 116° |
| 2026-05-06 22:09 | 40.95438 | 34.23026 | 35127 ft | 506 kts | 116° |
| 2026-05-06 22:09 | 40.93779 | 34.27117 | 35131 ft | 506 kts | 116° |
| 2026-05-06 22:10 | 40.90472 | 34.35250 | 35109 ft | 506 kts | 116° |
| 2026-05-06 22:10 | 40.87143 | 34.43417 | 35110 ft | 507 kts | 116° |
| 2026-05-06 22:11 | 40.83793 | 34.51611 | 35109 ft | 507 kts | 116° |
| 2026-05-06 22:11 | 40.80438 | 34.59796 | 35105 ft | 508 kts | 116° |
| 2026-05-06 22:12 | 40.77084 | 34.67956 | 35121 ft | 509 kts | 117° |
| 2026-05-06 22:12 | 40.73695 | 34.76148 | 35120 ft | 508 kts | 117° |
| 2026-05-06 22:13 | 40.70224 | 34.84215 | 35126 ft | 508 kts | 118° |
| 2026-05-06 22:13 | 40.66742 | 34.92278 | 35116 ft | 509 kts | 118° |
| 2026-05-06 22:14 | 40.63259 | 35.00333 | 35111 ft | 509 kts | 118° |
| 2026-05-06 22:14 | 40.59742 | 35.08447 | 35107 ft | 510 kts | 118° |
| 2026-05-06 22:15 | 40.56252 | 35.16483 | 35118 ft | 508 kts | 118° |
| 2026-05-06 22:15 | 40.52746 | 35.24534 | 35116 ft | 509 kts | 118° |
| 2026-05-06 22:16 | 40.49234 | 35.32579 | 35122 ft | 509 kts | 118° |
| 2026-05-06 22:16 | 40.45741 | 35.40562 | 35127 ft | 509 kts | 118° |
| 2026-05-06 22:17 | 40.42200 | 35.48629 | 35113 ft | 509 kts | 118° |
| 2026-05-06 22:17 | 40.38682 | 35.56628 | 35124 ft | 508 kts | 118° |
| 2026-05-06 22:18 | 40.35168 | 35.64594 | 35119 ft | 508 kts | 118° |
| 2026-05-06 22:18 | 40.31628 | 35.72598 | 35109 ft | 507 kts | 119° |
| 2026-05-06 22:19 | 40.28095 | 35.80567 | 35120 ft | 508 kts | 120° |
| 2026-05-06 22:19 | 40.24545 | 35.88553 | 35118 ft | 508 kts | 120° |
| 2026-05-06 22:20 | 40.20999 | 35.96509 | 35132 ft | 509 kts | 119° |
| 2026-05-06 22:20 | 40.17437 | 36.04480 | 35121 ft | 507 kts | 120° |
| 2026-05-06 22:21 | 40.13895 | 36.12388 | 35133 ft | 508 kts | 120° |
| 2026-05-06 22:21 | 40.10304 | 36.20382 | 35126 ft | 509 kts | 120° |
| 2026-05-06 22:22 | 40.06760 | 36.28252 | 35141 ft | 508 kts | 120° |
| 2026-05-06 22:22 | 40.03182 | 36.36180 | 35136 ft | 508 kts | 120° |
| 2026-05-06 22:23 | 39.99584 | 36.44128 | 35139 ft | 508 kts | 120° |
| 2026-05-06 22:23 | 39.96004 | 36.52018 | 35153 ft | 507 kts | 120° |
| 2026-05-06 22:24 | 39.92433 | 36.59868 | 35149 ft | 508 kts | 120° |
| 2026-05-06 22:24 | 39.88823 | 36.67784 | 35132 ft | 508 kts | 121° |
| 2026-05-06 22:25 | 39.85204 | 36.75698 | 35132 ft | 507 kts | 121° |
| 2026-05-06 22:25 | 39.81616 | 36.83526 | 35124 ft | 508 kts | 121° |
| 2026-05-06 22:26 | 39.78010 | 36.91393 | 35134 ft | 507 kts | 121° |
| 2026-05-06 22:26 | 39.74466 | 36.99322 | 35128 ft | 509 kts | 121° |
| 2026-05-06 22:27 | 39.70937 | 37.07208 | 35137 ft | 508 kts | 121° |
| 2026-05-06 22:27 | 39.67387 | 37.15112 | 35153 ft | 510 kts | 121° |
| 2026-05-06 22:28 | 39.63831 | 37.23007 | 35156 ft | 508 kts | 121° |
| 2026-05-06 22:28 | 39.60257 | 37.30919 | 35154 ft | 510 kts | 121° |
| 2026-05-06 22:29 | 39.56676 | 37.38822 | 35155 ft | 509 kts | 121° |
| 2026-05-06 22:29 | 39.53073 | 37.46751 | 35149 ft | 511 kts | 121° |
| 2026-05-06 22:30 | 39.49486 | 37.54623 | 35152 ft | 510 kts | 121° |
| 2026-05-06 22:30 | 39.45889 | 37.62497 | 35155 ft | 512 kts | 122° |
| 2026-05-06 22:31 | 39.42246 | 37.70438 | 35153 ft | 512 kts | 122° |
| 2026-05-06 22:31 | 39.38618 | 37.78319 | 35153 ft | 512 kts | 122° |
| 2026-05-06 22:32 | 39.34993 | 37.86172 | 35147 ft | 512 kts | 122° |
| 2026-05-06 22:32 | 39.31338 | 37.94073 | 35150 ft | 513 kts | 123° |
| 2026-05-06 22:33 | 39.27672 | 38.01978 | 35144 ft | 514 kts | 123° |
| 2026-05-06 22:33 | 39.24005 | 38.09866 | 35146 ft | 515 kts | 123° |
| 2026-05-06 22:34 | 39.20348 | 38.17712 | 35140 ft | 515 kts | 123° |
| 2026-05-06 22:34 | 39.16665 | 38.25592 | 35147 ft | 515 kts | 123° |
| 2026-05-06 22:35 | 39.12983 | 38.33454 | 35146 ft | 514 kts | 123° |
| 2026-05-06 22:35 | 39.09282 | 38.41336 | 35144 ft | 515 kts | 123° |
| 2026-05-06 22:36 | 39.05589 | 38.49180 | 35131 ft | 515 kts | 123° |
| 2026-05-06 22:36 | 39.01887 | 38.57025 | 35131 ft | 516 kts | 123° |
| 2026-05-06 22:37 | 38.98158 | 38.64907 | 35110 ft | 515 kts | 123° |
| 2026-05-06 22:37 | 38.94453 | 38.72720 | 35121 ft | 515 kts | 124° |
| 2026-05-06 22:38 | 38.90730 | 38.80551 | 35107 ft | 515 kts | 124° |
| 2026-05-06 22:38 | 38.87004 | 38.88370 | 35096 ft | 515 kts | 124° |
| 2026-05-06 22:39 | 38.83268 | 38.96197 | 35102 ft | 515 kts | 124° |
| 2026-05-06 22:39 | 38.79584 | 39.03980 | 35098 ft | 515 kts | 124° |
| 2026-05-06 22:40 | 38.75874 | 39.11802 | 35096 ft | 515 kts | 124° |
| 2026-05-06 22:40 | 38.72228 | 39.19720 | 35104 ft | 517 kts | 118° |
| 2026-05-06 22:41 | 38.70009 | 39.28489 | 35111 ft | 523 kts | 102° |
| 2026-05-06 22:41 | 38.69417 | 39.33027 | 35095 ft | 526 kts | 101° |
| 2026-05-06 22:42 | 38.68265 | 39.42253 | 35107 ft | 523 kts | 101° |
| 2026-05-06 22:42 | 38.67101 | 39.51431 | 35104 ft | 525 kts | 101° |
| 2026-05-06 22:43 | 38.65926 | 39.60581 | 35100 ft | 525 kts | 101° |
| 2026-05-06 22:43 | 38.64731 | 39.69794 | 35100 ft | 525 kts | 102° |
| 2026-05-06 22:44 | 38.63535 | 39.78941 | 35101 ft | 524 kts | 102° |
| 2026-05-06 22:44 | 38.62324 | 39.88127 | 35111 ft | 524 kts | 102° |
| 2026-05-06 22:45 | 38.61114 | 39.97257 | 35103 ft | 524 kts | 102° |
| 2026-05-06 22:45 | 38.59893 | 40.06395 | 35107 ft | 525 kts | 102° |
| 2026-05-06 22:46 | 38.58660 | 40.15574 | 35092 ft | 524 kts | 102° |
| 2026-05-06 22:46 | 38.57423 | 40.24726 | 35103 ft | 525 kts | 102° |
| 2026-05-06 22:47 | 38.56179 | 40.33874 | 35117 ft | 525 kts | 102° |
| 2026-05-06 22:47 | 38.54930 | 40.43024 | 35118 ft | 525 kts | 102° |
| 2026-05-06 22:48 | 38.53749 | 40.52168 | 35116 ft | 524 kts | 102° |
| 2026-05-06 22:48 | 38.52566 | 40.61317 | 35107 ft | 524 kts | 102° |
| 2026-05-06 22:49 | 38.51364 | 40.70525 | 35102 ft | 524 kts | 102° |
| 2026-05-06 22:49 | 38.50169 | 40.79622 | 35110 ft | 524 kts | 103° |
| 2026-05-06 22:50 | 38.48960 | 40.88763 | 35119 ft | 524 kts | 103° |
| 2026-05-06 22:50 | 38.47765 | 40.97731 | 35115 ft | 524 kts | 103° |
| 2026-05-06 22:51 | 38.46384 | 41.06817 | 35105 ft | 520 kts | 110° |
| 2026-05-06 22:51 | 38.43667 | 41.15249 | 35116 ft | 514 kts | 120° |
| 2026-05-06 22:52 | 38.40603 | 41.23460 | 35108 ft | 513 kts | 120° |
| 2026-05-06 22:52 | 38.37536 | 41.31639 | 35106 ft | 513 kts | 120° |
| 2026-05-06 22:53 | 38.34457 | 41.39824 | 35101 ft | 514 kts | 120° |
| 2026-05-06 22:53 | 38.31382 | 41.47975 | 35102 ft | 512 kts | 120° |
| 2026-05-06 22:54 | 38.28290 | 41.56148 | 35099 ft | 513 kts | 120° |
| 2026-05-06 22:54 | 38.25190 | 41.64322 | 35100 ft | 513 kts | 120° |
| 2026-05-06 22:55 | 38.22109 | 41.72422 | 35092 ft | 512 kts | 121° |
| 2026-05-06 22:55 | 38.18988 | 41.80603 | 35083 ft | 513 kts | 121° |
| 2026-05-06 22:56 | 38.15891 | 41.88702 | 34966 ft | 513 kts | 121° |
| 2026-05-06 22:56 | 38.12760 | 41.96864 | 35288 ft | 517 kts | 121° |
| 2026-05-06 22:56 | 38.11188 | 42.00959 | 35118 ft | 514 kts | 121° |
| 2026-05-06 22:57 | 38.09639 | 42.04989 | 35039 ft | 512 kts | 121° |
| 2026-05-06 22:57 | 38.06475 | 42.13189 | 35083 ft | 517 kts | 121° |
| 2026-05-06 22:58 | 38.03344 | 42.21296 | 35113 ft | 516 kts | 121° |
| 2026-05-06 22:58 | 38.00175 | 42.29472 | 35120 ft | 516 kts | 121° |
| 2026-05-06 22:59 | 37.97020 | 42.37592 | 35123 ft | 517 kts | 121° |
| 2026-05-06 22:59 | 37.93840 | 42.45754 | 35115 ft | 517 kts | 121° |
| 2026-05-06 23:00 | 37.90673 | 42.53863 | 35119 ft | 516 kts | 122° |
| 2026-05-06 23:00 | 37.87503 | 42.61956 | 35146 ft | 517 kts | 122° |
| 2026-05-06 23:01 | 37.84058 | 42.69917 | 35149 ft | 511 kts | 127° |
| 2026-05-06 23:01 | 37.80414 | 42.77552 | 35164 ft | 512 kts | 127° |
| 2026-05-06 23:02 | 37.76726 | 42.85257 | 35155 ft | 513 kts | 128° |
| 2026-05-06 23:02 | 37.73026 | 42.92972 | 35156 ft | 512 kts | 128° |
| 2026-05-06 23:03 | 37.69355 | 43.00608 | 35157 ft | 513 kts | 128° |
| 2026-05-06 23:03 | 37.65651 | 43.08300 | 35158 ft | 513 kts | 128° |
| 2026-05-06 23:04 | 37.61960 | 43.15944 | 35162 ft | 512 kts | 128° |
| 2026-05-06 23:04 | 37.58249 | 43.23610 | 35157 ft | 514 kts | 128° |
| 2026-05-06 23:05 | 37.54541 | 43.31255 | 35151 ft | 512 kts | 128° |
| 2026-05-06 23:05 | 37.50828 | 43.38894 | 35147 ft | 512 kts | 128° |
| 2026-05-06 23:06 | 37.47125 | 43.46492 | 35148 ft | 513 kts | 128° |
| 2026-05-06 23:06 | 37.43377 | 43.54165 | 35142 ft | 513 kts | 128° |
| 2026-05-06 23:07 | 37.39656 | 43.61765 | 35143 ft | 514 kts | 128° |
| 2026-05-06 23:07 | 37.35916 | 43.69389 | 35135 ft | 512 kts | 129° |
| 2026-05-06 23:08 | 37.32186 | 43.76975 | 35135 ft | 512 kts | 129° |
| 2026-05-06 23:08 | 37.28435 | 43.84561 | 35124 ft | 510 kts | 131° |
| 2026-05-06 23:08 | 37.26341 | 43.88049 | 35128 ft | 499 kts | 140° |
| 2026-05-06 23:09 | 37.23908 | 43.91121 | 35125 ft | 490 kts | 147° |
| 2026-05-06 23:09 | 37.18380 | 43.95759 | 35127 ft | 471 kts | 162° |
| 2026-05-06 23:10 | 37.12378 | 43.98804 | 35124 ft | 464 kts | 167° |
| 2026-05-06 23:10 | 37.06322 | 44.01671 | 35119 ft | 465 kts | 168° |
| 2026-05-06 23:11 | 37.00302 | 44.04494 | 35113 ft | 464 kts | 168° |
| 2026-05-06 23:11 | 36.94212 | 44.07334 | 35124 ft | 466 kts | 168° |
| 2026-05-06 23:12 | 36.88159 | 44.10147 | 35114 ft | 465 kts | 168° |
| 2026-05-06 23:12 | 36.82074 | 44.12965 | 35117 ft | 465 kts | 168° |
| 2026-05-06 23:13 | 36.76025 | 44.15762 | 35114 ft | 465 kts | 168° |
| 2026-05-06 23:13 | 36.69975 | 44.18552 | 35120 ft | 463 kts | 168° |
| 2026-05-06 23:14 | 36.63929 | 44.21334 | 35110 ft | 462 kts | 168° |
| 2026-05-06 23:14 | 36.57905 | 44.24100 | 35119 ft | 464 kts | 168° |
| 2026-05-06 23:15 | 36.51858 | 44.26874 | 35117 ft | 462 kts | 168° |
| 2026-05-06 23:15 | 36.45831 | 44.29632 | 35110 ft | 463 kts | 168° |
| 2026-05-06 23:16 | 36.39787 | 44.32395 | 35109 ft | 462 kts | 168° |
| 2026-05-06 23:16 | 36.33778 | 44.35136 | 35097 ft | 462 kts | 168° |
| 2026-05-06 23:17 | 36.27718 | 44.37897 | 35100 ft | 461 kts | 168° |
| 2026-05-06 23:17 | 36.21711 | 44.40628 | 35099 ft | 462 kts | 168° |
| 2026-05-06 23:18 | 36.15669 | 44.43372 | 35099 ft | 461 kts | 168° |
| 2026-05-06 23:18 | 36.09666 | 44.46092 | 35084 ft | 461 kts | 168° |
| 2026-05-06 23:19 | 36.03649 | 44.48815 | 35082 ft | 462 kts | 168° |
| 2026-05-06 23:19 | 35.97626 | 44.51536 | 35075 ft | 460 kts | 168° |
| 2026-05-06 23:20 | 35.91593 | 44.54257 | 35077 ft | 462 kts | 168° |
| 2026-05-06 23:20 | 35.85562 | 44.56974 | 35104 ft | 460 kts | 168° |
| 2026-05-06 23:21 | 35.79550 | 44.59676 | 35103 ft | 460 kts | 168° |
| 2026-05-06 23:21 | 35.73506 | 44.62389 | 35089 ft | 461 kts | 168° |
| 2026-05-06 23:22 | 35.67481 | 44.65089 | 35095 ft | 461 kts | 169° |
| 2026-05-06 23:22 | 35.61464 | 44.67781 | 35073 ft | 460 kts | 169° |
| 2026-05-06 23:23 | 35.55466 | 44.70460 | 35081 ft | 461 kts | 169° |
| 2026-05-06 23:23 | 35.49422 | 44.73156 | 35081 ft | 461 kts | 169° |
| 2026-05-06 23:24 | 35.43395 | 44.75840 | 35076 ft | 460 kts | 169° |
| 2026-05-06 23:24 | 35.37377 | 44.78514 | 35077 ft | 462 kts | 169° |
| 2026-05-06 23:25 | 35.31330 | 44.81199 | 35067 ft | 460 kts | 169° |
| 2026-05-06 23:25 | 35.25316 | 44.83863 | 35065 ft | 463 kts | 169° |
| 2026-05-06 23:26 | 35.19283 | 44.86533 | 35055 ft | 461 kts | 169° |
| 2026-05-06 23:26 | 35.13226 | 44.89208 | 35062 ft | 463 kts | 169° |
| 2026-05-06 23:27 | 35.07184 | 44.91874 | 35051 ft | 462 kts | 169° |
| 2026-05-06 23:27 | 35.01119 | 44.94544 | 35063 ft | 465 kts | 169° |
| 2026-05-06 23:28 | 34.95094 | 44.97193 | 35057 ft | 463 kts | 169° |
| 2026-05-06 23:28 | 34.89024 | 44.99858 | 35066 ft | 462 kts | 169° |
| 2026-05-06 23:29 | 34.82967 | 45.02512 | 35070 ft | 463 kts | 169° |
| 2026-05-06 23:29 | 34.76929 | 45.05155 | 35057 ft | 462 kts | 169° |
| 2026-05-06 23:30 | 34.70867 | 45.07803 | 35062 ft | 462 kts | 169° |
| 2026-05-06 23:30 | 34.64822 | 45.10440 | 35058 ft | 461 kts | 169° |
| 2026-05-06 23:31 | 34.58815 | 45.13057 | 35051 ft | 460 kts | 169° |
| 2026-05-06 23:31 | 34.52776 | 45.15679 | 35043 ft | 460 kts | 170° |
| 2026-05-06 23:31 | 34.49754 | 45.16643 | 35040 ft | 449 kts | 178° |
| 2026-05-06 23:32 | 34.46666 | 45.17078 | 35047 ft | 442 kts | 184° |
| 2026-05-06 23:32 | 34.40522 | 45.17525 | 35052 ft | 440 kts | 184° |
| 2026-05-06 23:33 | 34.34390 | 45.17950 | 35037 ft | 441 kts | 184° |
| 2026-05-06 23:33 | 34.28298 | 45.18370 | 35042 ft | 441 kts | 184° |
| 2026-05-06 23:34 | 34.22171 | 45.18789 | 35038 ft | 440 kts | 184° |
| 2026-05-06 23:34 | 34.19115 | 45.18997 | 35170 ft | 442 kts | 184° |
| 2026-05-06 23:34 | 34.16045 | 45.19207 | 35037 ft | 439 kts | 184° |
| 2026-05-06 23:35 | 34.09931 | 45.19623 | 35039 ft | 438 kts | 184° |
| 2026-05-06 23:35 | 34.03867 | 45.20034 | 35035 ft | 439 kts | 184° |
| 2026-05-06 23:36 | 33.97776 | 45.20447 | 35025 ft | 439 kts | 184° |
| 2026-05-06 23:36 | 33.91679 | 45.20860 | 35026 ft | 438 kts | 184° |
| 2026-05-06 23:37 | 33.85572 | 45.21272 | 35037 ft | 439 kts | 184° |
| 2026-05-06 23:37 | 33.79507 | 45.21682 | 35033 ft | 438 kts | 184° |
| 2026-05-06 23:38 | 33.73412 | 45.22092 | 35024 ft | 438 kts | 184° |
| 2026-05-06 23:38 | 33.67372 | 45.22499 | 35027 ft | 438 kts | 184° |
| 2026-05-06 23:39 | 33.61295 | 45.22906 | 35031 ft | 439 kts | 184° |
| 2026-05-06 23:39 | 33.55201 | 45.23316 | 35022 ft | 437 kts | 184° |
| 2026-05-06 23:40 | 33.49166 | 45.23721 | 35019 ft | 435 kts | 184° |
| 2026-05-06 23:40 | 33.46144 | 45.23922 | 34837 ft | 437 kts | 184° |
| 2026-05-06 23:40 | 33.43082 | 45.24126 | 34999 ft | 438 kts | 184° |
| 2026-05-06 23:41 | 33.37007 | 45.24533 | 35018 ft | 436 kts | 184° |
| 2026-05-06 23:41 | 33.30955 | 45.25754 | 35006 ft | 454 kts | 169° |
| 2026-05-06 23:41 | 33.28016 | 45.27270 | 35015 ft | 465 kts | 160° |
| 2026-05-06 23:42 | 33.25275 | 45.29370 | 35011 ft | 477 kts | 152° |
| 2026-05-06 23:42 | 33.20036 | 45.34323 | 35014 ft | 481 kts | 150° |
| 2026-05-06 23:43 | 33.14807 | 45.39295 | 35009 ft | 480 kts | 150° |
| 2026-05-06 23:43 | 33.09555 | 45.44260 | 35007 ft | 480 kts | 150° |
| 2026-05-06 23:44 | 33.04348 | 45.49165 | 35008 ft | 481 kts | 150° |
| 2026-05-06 23:44 | 32.99101 | 45.54095 | 35008 ft | 481 kts | 150° |
| 2026-05-06 23:44 | 32.96473 | 45.56560 | 35191 ft | 479 kts | 150° |
| 2026-05-06 23:45 | 32.93874 | 45.58996 | 35010 ft | 478 kts | 150° |
| 2026-05-06 23:45 | 32.88660 | 45.63873 | 35010 ft | 480 kts | 151° |
| 2026-05-06 23:46 | 32.83432 | 45.68758 | 34997 ft | 478 kts | 151° |
| 2026-05-06 23:46 | 32.78183 | 45.73658 | 35000 ft | 477 kts | 151° |
| 2026-05-06 23:47 | 32.72947 | 45.78540 | 34998 ft | 478 kts | 151° |
| 2026-05-06 23:47 | 32.67739 | 45.83388 | 34994 ft | 479 kts | 151° |
| 2026-05-06 23:48 | 32.62490 | 45.88268 | 34998 ft | 480 kts | 151° |
| 2026-05-06 23:48 | 32.57280 | 45.93105 | 34989 ft | 478 kts | 152° |
| 2026-05-06 23:49 | 32.52009 | 45.97988 | 34988 ft | 479 kts | 152° |
| 2026-05-06 23:49 | 32.46793 | 46.02815 | 34989 ft | 478 kts | 152° |
| 2026-05-06 23:50 | 32.41547 | 46.07661 | 34992 ft | 480 kts | 152° |
| 2026-05-06 23:50 | 32.33652 | 46.14942 | 34983 ft | 480 kts | 152° |
| 2026-05-06 23:51 | 32.28379 | 46.19795 | 34979 ft | 478 kts | 152° |
| 2026-05-06 23:51 | 32.23099 | 46.24645 | 34978 ft | 481 kts | 152° |
| 2026-05-06 23:52 | 32.17849 | 46.29464 | 34977 ft | 479 kts | 152° |
| 2026-05-06 23:52 | 32.12571 | 46.34298 | 34981 ft | 482 kts | 152° |
| 2026-05-06 23:53 | 32.07281 | 46.39140 | 34975 ft | 479 kts | 152° |
| 2026-05-06 23:53 | 32.02010 | 46.43954 | 34970 ft | 481 kts | 152° |
| 2026-05-06 23:54 | 31.96719 | 46.48780 | 34974 ft | 481 kts | 152° |
| 2026-05-06 23:54 | 31.91424 | 46.53602 | 34970 ft | 481 kts | 152° |
| 2026-05-06 23:55 | 31.86163 | 46.58387 | 34982 ft | 480 kts | 152° |
| 2026-05-06 23:55 | 31.80878 | 46.63185 | 34987 ft | 482 kts | 152° |
| 2026-05-06 23:56 | 31.75581 | 46.67987 | 34964 ft | 482 kts | 153° |
| 2026-05-06 23:56 | 31.70282 | 46.72786 | 34959 ft | 480 kts | 153° |
| 2026-05-06 23:57 | 31.64968 | 46.77588 | 34960 ft | 482 kts | 153° |
| 2026-05-06 23:57 | 31.59690 | 46.82354 | 34953 ft | 480 kts | 153° |
| 2026-05-06 23:58 | 31.54374 | 46.87145 | 34959 ft | 481 kts | 152° |
| 2026-05-06 23:58 | 31.49096 | 46.91894 | 34955 ft | 482 kts | 153° |
| 2026-05-06 23:59 | 31.43796 | 46.96659 | 34955 ft | 479 kts | 153° |
| 2026-05-06 23:59 | 31.38473 | 47.01434 | 34948 ft | 481 kts | 153° |
| 2026-05-07 00:00 | 31.33179 | 47.06177 | 34947 ft | 483 kts | 152° |
| 2026-05-07 00:00 | 31.28754 | 47.10139 | 34947 ft | 481 kts | 153° |
| 2026-05-07 00:01 | 31.22562 | 47.15672 | 34948 ft | 481 kts | 153° |
| 2026-05-07 00:01 | 31.17232 | 47.20427 | 34943 ft | 480 kts | 152° |
| 2026-05-07 00:02 | 31.11931 | 47.25148 | 34943 ft | 482 kts | 152° |
| 2026-05-07 00:02 | 31.06614 | 47.29878 | 34944 ft | 482 kts | 153° |
| 2026-05-07 00:03 | 31.01281 | 47.34613 | 34943 ft | 485 kts | 152° |
| 2026-05-07 00:03 | 30.95925 | 47.39366 | 34943 ft | 483 kts | 152° |
| 2026-05-07 00:04 | 30.90621 | 47.44065 | 34931 ft | 481 kts | 153° |
| 2026-05-07 00:04 | 30.85264 | 47.48801 | 34952 ft | 484 kts | 153° |
| 2026-05-07 00:05 | 30.80058 | 47.53826 | 34955 ft | 493 kts | 147° |
| 2026-05-07 00:05 | 30.75024 | 47.59184 | 34947 ft | 490 kts | 147° |
| 2026-05-07 00:06 | 30.69967 | 47.64516 | 34940 ft | 493 kts | 148° |
| 2026-05-07 00:06 | 30.64943 | 47.69786 | 34928 ft | 488 kts | 148° |
| 2026-05-07 00:07 | 30.59858 | 47.75090 | 34926 ft | 491 kts | 148° |
| 2026-05-07 00:07 | 30.54770 | 47.80389 | 34922 ft | 489 kts | 148° |
| 2026-05-07 00:08 | 30.49701 | 47.85650 | 34919 ft | 491 kts | 148° |
| 2026-05-07 00:08 | 30.44622 | 47.90918 | 34916 ft | 488 kts | 148° |
| 2026-05-07 00:09 | 30.39519 | 47.96195 | 34912 ft | 493 kts | 148° |
| 2026-05-07 00:09 | 30.34407 | 48.01480 | 34908 ft | 490 kts | 148° |
| 2026-05-07 00:10 | 30.29320 | 48.06726 | 34898 ft | 493 kts | 148° |
| 2026-05-07 00:10 | 30.24197 | 48.12003 | 34901 ft | 494 kts | 148° |
| 2026-05-07 00:11 | 30.19088 | 48.17260 | 34901 ft | 492 kts | 148° |
| 2026-05-07 00:11 | 30.13981 | 48.22504 | 34901 ft | 493 kts | 148° |
| 2026-05-07 00:12 | 30.08869 | 48.27748 | 34899 ft | 492 kts | 148° |
| 2026-05-07 00:12 | 30.03733 | 48.33006 | 34905 ft | 493 kts | 148° |
| 2026-05-07 00:13 | 29.98609 | 48.38246 | 34897 ft | 496 kts | 148° |
| 2026-05-07 00:13 | 29.93490 | 48.43477 | 34898 ft | 493 kts | 148° |
| 2026-05-07 00:14 | 29.88287 | 48.48628 | 34905 ft | 488 kts | 154° |
| 2026-05-07 00:14 | 29.82484 | 48.52469 | 34919 ft | 478 kts | 163° |
| 2026-05-07 00:15 | 29.79528 | 48.54188 | 35046 ft | 483 kts | 163° |
| 2026-05-07 00:15 | 29.76515 | 48.55935 | 35480 ft | 485 kts | 163° |
| 2026-05-07 00:15 | 29.73541 | 48.57664 | 36344 ft | 478 kts | 163° |
| 2026-05-07 00:15 | 29.70563 | 48.59391 | 36847 ft | 477 kts | 163° |
| 2026-05-07 00:16 | 29.64670 | 48.62799 | 36910 ft | 476 kts | 164° |
| 2026-05-07 00:16 | 29.58749 | 48.66218 | 36892 ft | 476 kts | 164° |
| 2026-05-07 00:17 | 29.52818 | 48.69640 | 36886 ft | 473 kts | 164° |
| 2026-05-07 00:17 | 29.46928 | 48.73031 | 36885 ft | 476 kts | 164° |
| 2026-05-07 00:18 | 29.41032 | 48.76423 | 36883 ft | 476 kts | 164° |
| 2026-05-07 00:18 | 29.35080 | 48.79850 | 36885 ft | 479 kts | 164° |
| 2026-05-07 00:19 | 29.29147 | 48.83266 | 36885 ft | 476 kts | 164° |
| 2026-05-07 00:19 | 29.23211 | 48.86675 | 36883 ft | 482 kts | 164° |
| 2026-05-07 00:20 | 29.17242 | 48.90102 | 36883 ft | 480 kts | 163° |
| 2026-05-07 00:20 | 29.11312 | 48.93498 | 36884 ft | 479 kts | 164° |
| 2026-05-07 00:21 | 29.05345 | 48.96907 | 36881 ft | 479 kts | 163° |
| 2026-05-07 00:21 | 28.99359 | 49.00322 | 36871 ft | 480 kts | 163° |
| 2026-05-07 00:22 | 28.93366 | 49.03738 | 36882 ft | 479 kts | 163° |
| 2026-05-07 00:22 | 28.87379 | 49.07143 | 36893 ft | 482 kts | 163° |
| 2026-05-07 00:23 | 28.81396 | 49.10625 | 36889 ft | 485 kts | 162° |
| 2026-05-07 00:23 | 28.75443 | 49.14172 | 36886 ft | 480 kts | 162° |
| 2026-05-07 00:24 | 28.69472 | 49.17712 | 36884 ft | 484 kts | 162° |
| 2026-05-07 00:24 | 28.63504 | 49.21247 | 36882 ft | 485 kts | 162° |
| 2026-05-07 00:25 | 28.57521 | 49.24784 | 36881 ft | 481 kts | 162° |
| 2026-05-07 00:25 | 28.51586 | 49.28326 | 36876 ft | 493 kts | 157° |
| 2026-05-07 00:26 | 28.46164 | 49.33212 | 36873 ft | 505 kts | 148° |
| 2026-05-07 00:26 | 28.40892 | 49.38466 | 36880 ft | 502 kts | 148° |
| 2026-05-07 00:27 | 28.35634 | 49.43691 | 36879 ft | 502 kts | 148° |
| 2026-05-07 00:27 | 28.30357 | 49.48921 | 36875 ft | 504 kts | 148° |
| 2026-05-07 00:28 | 28.25083 | 49.54129 | 36877 ft | 502 kts | 148° |
| 2026-05-07 00:28 | 28.19776 | 49.59258 | 36873 ft | 496 kts | 151° |
| 2026-05-07 00:29 | 28.14234 | 49.63977 | 36875 ft | 496 kts | 152° |
| 2026-05-07 00:30 | 28.03221 | 49.73320 | 36854 ft | 493 kts | 154° |
| 2026-05-07 00:30 | 27.97580 | 49.77673 | 36861 ft | 494 kts | 155° |
| 2026-05-07 00:31 | 27.91917 | 49.82037 | 36858 ft | 491 kts | 155° |
| 2026-05-07 00:31 | 27.86241 | 49.86420 | 36869 ft | 493 kts | 154° |
| 2026-05-07 00:32 | 27.80574 | 49.90802 | 36867 ft | 494 kts | 154° |
| 2026-05-07 00:32 | 27.74896 | 49.95190 | 36867 ft | 496 kts | 154° |
| 2026-05-07 00:33 | 27.69221 | 49.99573 | 36869 ft | 495 kts | 154° |
| 2026-05-07 00:33 | 27.63490 | 50.03995 | 36867 ft | 496 kts | 154° |
| 2026-05-07 00:34 | 27.57807 | 50.08375 | 36867 ft | 498 kts | 154° |
| 2026-05-07 00:34 | 27.52121 | 50.12752 | 36868 ft | 496 kts | 154° |
| 2026-05-07 00:35 | 27.46380 | 50.17168 | 36869 ft | 496 kts | 154° |
| 2026-05-07 00:35 | 27.40726 | 50.21633 | 36867 ft | 501 kts | 152° |
| 2026-05-07 00:36 | 27.35080 | 50.26232 | 36868 ft | 501 kts | 152° |
| 2026-05-07 00:36 | 27.29437 | 50.30815 | 36863 ft | 501 kts | 152° |
| 2026-05-07 00:37 | 27.23790 | 50.35388 | 36865 ft | 501 kts | 152° |
| 2026-05-07 00:37 | 27.18114 | 50.39974 | 36868 ft | 501 kts | 152° |
| 2026-05-07 00:38 | 27.12446 | 50.44547 | 36862 ft | 502 kts | 152° |
| 2026-05-07 00:38 | 27.06805 | 50.49092 | 36864 ft | 501 kts | 151° |
| 2026-05-07 00:39 | 27.01150 | 50.53641 | 36862 ft | 500 kts | 151° |
| 2026-05-07 00:39 | 26.95538 | 50.58258 | 36861 ft | 504 kts | 147° |
| 2026-05-07 00:40 | 26.89746 | 50.62528 | 36868 ft | 493 kts | 158° |
| 2026-05-07 00:40 | 26.83751 | 50.66170 | 36854 ft | 491 kts | 159° |
| 2026-05-07 00:41 | 26.77772 | 50.69793 | 36851 ft | 490 kts | 159° |
| 2026-05-07 00:41 | 26.71740 | 50.73441 | 36859 ft | 492 kts | 159° |
| 2026-05-07 00:42 | 26.65754 | 50.77059 | 36853 ft | 490 kts | 159° |
| 2026-05-07 00:42 | 26.59737 | 50.80690 | 36859 ft | 491 kts | 159° |
| 2026-05-07 00:43 | 26.53749 | 50.84300 | 36857 ft | 490 kts | 159° |
| 2026-05-07 00:43 | 26.47763 | 50.87904 | 36861 ft | 490 kts | 159° |
| 2026-05-07 00:44 | 26.41745 | 50.91523 | 36858 ft | 489 kts | 158° |
| 2026-05-07 00:44 | 26.38785 | 50.93305 | 36626 ft | 481 kts | 159° |
| 2026-05-07 00:44 | 26.35861 | 50.95061 | 35725 ft | 484 kts | 158° |
| 2026-05-07 00:45 | 26.32891 | 50.96841 | 34723 ft | 488 kts | 158° |
| 2026-05-07 00:45 | 26.29905 | 50.98632 | 33857 ft | 489 kts | 158° |
| 2026-05-07 00:45 | 26.26895 | 51.00436 | 33010 ft | 490 kts | 158° |
| 2026-05-07 00:45 | 26.23884 | 51.02239 | 32182 ft | 490 kts | 158° |
| 2026-05-07 00:46 | 26.20899 | 51.04025 | 31316 ft | 492 kts | 158° |
| 2026-05-07 00:46 | 26.17873 | 51.05835 | 30473 ft | 493 kts | 158° |
| 2026-05-07 00:46 | 26.14875 | 51.07630 | 30073 ft | 483 kts | 157° |
| 2026-05-07 00:46 | 26.11971 | 51.09371 | 29962 ft | 471 kts | 157° |
| 2026-05-07 00:47 | 26.09042 | 51.11116 | 29613 ft | 492 kts | 157° |
| 2026-05-07 00:47 | 26.05989 | 51.12933 | 29033 ft | 497 kts | 156° |
| 2026-05-07 00:47 | 26.02983 | 51.14727 | 28440 ft | 492 kts | 156° |
| 2026-05-07 00:47 | 25.99957 | 51.16533 | 27830 ft | 487 kts | 156° |
| 2026-05-07 00:48 | 25.97005 | 51.18294 | 27237 ft | 482 kts | 156° |
| 2026-05-07 00:48 | 25.94049 | 51.20056 | 26609 ft | 478 kts | 156° |
| 2026-05-07 00:48 | 25.91153 | 51.21780 | 25983 ft | 474 kts | 155° |
| 2026-05-07 00:48 | 25.88239 | 51.23515 | 25353 ft | 470 kts | 155° |
| 2026-05-07 00:49 | 25.85394 | 51.25206 | 24711 ft | 467 kts | 155° |
| 2026-05-07 00:49 | 25.82534 | 51.26907 | 24067 ft | 463 kts | 155° |
| 2026-05-07 00:49 | 25.79696 | 51.28593 | 23408 ft | 459 kts | 155° |
| 2026-05-07 00:49 | 25.76895 | 51.30255 | 22747 ft | 456 kts | 154° |
| 2026-05-07 00:50 | 25.74123 | 51.31899 | 22101 ft | 453 kts | 154° |
| 2026-05-07 00:50 | 25.71349 | 51.33544 | 21429 ft | 450 kts | 154° |
| 2026-05-07 00:50 | 25.68619 | 51.35162 | 20769 ft | 446 kts | 153° |
| 2026-05-07 00:50 | 25.65891 | 51.36778 | 20104 ft | 442 kts | 153° |
| 2026-05-07 00:51 | 25.63201 | 51.38368 | 19441 ft | 438 kts | 153° |
| 2026-05-07 00:51 | 25.60418 | 51.39664 | 18944 ft | 429 kts | 163° |
| 2026-05-07 00:51 | 25.57567 | 51.40438 | 18845 ft | 412 kts | 168° |
| 2026-05-07 00:51 | 25.54743 | 51.41089 | 18851 ft | 415 kts | 168° |
| 2026-05-07 00:52 | 25.51895 | 51.41734 | 18846 ft | 415 kts | 168° |
| 2026-05-07 00:52 | 25.49066 | 51.42371 | 18491 ft | 418 kts | 168° |
| 2026-05-07 00:52 | 25.46252 | 51.43001 | 18001 ft | 412 kts | 168° |
| 2026-05-07 00:52 | 25.43621 | 51.43588 | 17552 ft | 406 kts | 167° |
| 2026-05-07 00:53 | 25.40870 | 51.44200 | 17129 ft | 388 kts | 167° |
| 2026-05-07 00:53 | 25.38328 | 51.44764 | 16894 ft | 366 kts | 167° |
| 2026-05-07 00:53 | 25.35887 | 51.45306 | 16647 ft | 346 kts | 167° |
| 2026-05-07 00:53 | 25.33574 | 51.45819 | 16423 ft | 331 kts | 167° |
| 2026-05-07 00:54 | 25.31365 | 51.46309 | 16305 ft | 317 kts | 167° |
| 2026-05-07 00:54 | 25.29194 | 51.46790 | 15872 ft | 316 kts | 167° |
| 2026-05-07 00:54 | 25.27054 | 51.47264 | 15454 ft | 312 kts | 167° |
| 2026-05-07 00:54 | 25.24907 | 51.47739 | 14869 ft | 317 kts | 167° |
| 2026-05-07 00:55 | 25.22749 | 51.48224 | 14247 ft | 320 kts | 163° |
| 2026-05-07 00:55 | 25.20620 | 51.49017 | 13618 ft | 321 kts | 156° |
| 2026-05-07 00:55 | 25.18538 | 51.49934 | 12995 ft | 324 kts | 155° |
| 2026-05-07 00:55 | 25.16420 | 51.50814 | 12354 ft | 327 kts | 164° |
| 2026-05-07 00:56 | 25.14167 | 51.50975 | 11701 ft | 332 kts | 188° |
| 2026-05-07 00:56 | 25.11976 | 51.50227 | 11048 ft | 331 kts | 208° |
| 2026-05-07 00:56 | 25.10146 | 51.48721 | 10459 ft | 327 kts | 221° |
| 2026-05-07 00:56 | 25.08285 | 51.47362 | 9981 ft | 318 kts | 199° |
| 2026-05-07 00:57 | 25.06172 | 51.46967 | 9740 ft | 298 kts | 173° |
| 2026-05-07 00:57 | 25.04223 | 51.47492 | 9355 ft | 287 kts | 155° |
| 2026-05-07 00:57 | 25.02399 | 51.48369 | 8851 ft | 286 kts | 153° |
| 2026-05-07 00:57 | 25.00607 | 51.49320 | 8536 ft | 282 kts | 144° |
| 2026-05-07 00:58 | 24.99242 | 51.50782 | 8188 ft | 275 kts | 118° |
| 2026-05-07 00:58 | 24.98649 | 51.52744 | 7838 ft | 268 kts | 91° |
| 2026-05-07 00:58 | 24.98924 | 51.54749 | 7517 ft | 263 kts | 71° |
| 2026-05-07 00:58 | 24.99515 | 51.56652 | 7240 ft | 262 kts | 70° |
| 2026-05-07 00:59 | 25.00734 | 51.60343 | 6888 ft | 248 kts | 69° |
| 2026-05-07 00:59 | 25.01320 | 51.62120 | 6553 ft | 245 kts | 69° |
| 2026-05-07 00:59 | 25.01903 | 51.63881 | 6024 ft | 247 kts | 69° |
| 2026-05-07 01:00 | 25.02608 | 51.65574 | 5543 ft | 246 kts | 53° |
| 2026-05-07 01:00 | 25.03924 | 51.66770 | 5030 ft | 248 kts | 28° |
| 2026-05-07 01:00 | 25.05480 | 51.67543 | 4688 ft | 245 kts | 25° |
| 2026-05-07 01:00 | 25.07043 | 51.68291 | 4341 ft | 241 kts | 25° |
| 2026-05-07 01:01 | 25.08595 | 51.69006 | 3982 ft | 243 kts | 19° |
| 2026-05-07 01:01 | 25.10262 | 51.69244 | 3615 ft | 245 kts | 353° |
| 2026-05-07 01:01 | 25.11882 | 51.68704 | 3260 ft | 241 kts | 340° |
| 2026-05-07 01:01 | 25.13410 | 51.68017 | 2914 ft | 235 kts | 339° |
| 2026-05-07 01:02 | 25.14895 | 51.67340 | 2564 ft | 223 kts | 339° |
| 2026-05-07 01:02 | 25.16292 | 51.66714 | 2232 ft | 209 kts | 340° |
| 2026-05-07 01:02 | 25.17589 | 51.66145 | 1914 ft | 195 kts | 340° |
| 2026-05-07 01:02 | 25.18820 | 51.65612 | 1615 ft | 182 kts | 341° |
| 2026-05-07 01:03 | 25.19969 | 51.65112 | 1333 ft | 171 kts | 340° |
| 2026-05-07 01:03 | 25.21047 | 51.64639 | 1070 ft | 161 kts | 340° |
| 2026-05-07 01:03 | 25.22026 | 51.64209 | 837 ft | 147 kts | 340° |
| 2026-05-07 01:03 | 25.22760 | 51.63889 | 670 ft | 144 kts | 340° |
| 2026-05-07 01:04 | 25.23690 | 51.63479 | 426 ft | 143 kts | 341° |
| 2026-05-07 01:04 | 25.24598 | 51.63088 | 234 ft | 141 kts | 339° |
| 2026-05-07 01:04 | 25.25518 | 51.62683 | 51 ft | 139 kts | 340° |
| 2026-05-07 01:04 | 25.26373 | 51.62317 | 16 ft | 115 kts | 337° |
| 2026-05-07 01:05 | 25.26975 | 51.62047 | 15 ft | 70 kts | 338° |
| 2026-05-07 01:05 | 25.27334 | 51.61895 | 15 ft | 46 kts | 340° |